createdAt,value
2018-11-23T00:04:15.691Z,98576.95
2018-11-23T00:10:53.280Z,98582.89
2018-11-23T00:17:35.236Z,98576.11
2018-11-23T00:24:32.420Z,98582.98
2018-11-23T00:33:48.047Z,98581.83
2018-11-23T00:40:19.748Z,98582.05
2018-11-23T00:47:07.990Z,98587.36
2018-11-23T00:54:03.983Z,98580.17
2018-11-23T01:00:37.919Z,98581.28
2018-11-23T01:07:08.571Z,98585.34
2018-11-23T01:13:36.497Z,98590.42
2018-11-23T01:20:13.795Z,98586.20
2018-11-23T01:26:49.380Z,98583.52
2018-11-23T01:36:12.091Z,98592.34
2018-11-23T01:42:34.749Z,98589.25
2018-11-23T01:49:00.562Z,98587.81
2018-11-23T01:55:38.390Z,98589.71
2018-11-23T02:02:16.405Z,98590.37
2018-11-23T02:08:48.335Z,98587.02
2018-11-23T02:15:22.571Z,98584.91
2018-11-23T02:21:49.036Z,98580.53
2018-11-23T02:28:13.856Z,98589.20
2018-11-23T02:38:03.669Z,98579.76
2018-11-23T02:44:28.504Z,98576.45
2018-11-23T02:50:56.332Z,98571.20
2018-11-23T02:57:21.160Z,98565.23
2018-11-23T03:03:47.014Z,98564.08
2018-11-23T03:10:23.871Z,98560.56
2018-11-23T03:17:02.103Z,98553.03
2018-11-23T03:23:37.773Z,98552.42
2018-11-23T03:30:20.734Z,98551.22
2018-11-23T03:40:21.718Z,98551.89
2018-11-23T03:47:01.629Z,98542.16
2018-11-23T03:53:36.538Z,98541.01
2018-11-23T04:00:25.590Z,98546.72
2018-11-23T04:07:02.888Z,98552.34
2018-11-23T04:13:28.347Z,98548.50
2018-11-23T04:19:54.158Z,98542.38
2018-11-23T04:26:24.638Z,98544.86
2018-11-23T04:32:41.758Z,98544.33
2018-11-23T04:42:21.793Z,98550.28
2018-11-23T04:49:00.469Z,98539.86
2018-11-23T04:55:37.401Z,98532.24
2018-11-23T05:02:15.035Z,98526.58
2018-11-23T05:08:54.278Z,98528.19
2018-11-23T05:15:22.143Z,98530.47
2018-11-23T05:18:15.830Z,98523.69
2018-11-23T05:24:50.739Z,98526.58
2018-11-23T05:31:26.711Z,98526.41
2018-11-23T05:38:04.604Z,98530.47
2018-11-23T05:44:30.449Z,98529.14
2018-11-23T05:51:07.349Z,98548.58
2018-11-23T05:57:46.302Z,98542.54
2018-11-23T06:04:10.101Z,98534.64
2018-11-23T06:10:32.997Z,98538.69
2018-11-23T06:16:55.679Z,98534.30
2018-11-23T06:23:24.527Z,98527.97
2018-11-23T06:29:49.341Z,98533.91
2018-11-23T06:36:12.299Z,98538.06
2018-11-23T06:46:25.185Z,98550.55
2018-11-23T06:52:49.331Z,98544.56
2018-11-23T06:59:15.888Z,98541.34
2018-11-23T07:05:40.638Z,98545.36
2018-11-23T07:12:06.486Z,98558.39
2018-11-23T07:18:29.411Z,98548.62
2018-11-23T07:24:55.090Z,98554.58
2018-11-23T07:31:19.893Z,98548.45
2018-11-23T07:37:45.712Z,98552.06
2018-11-23T07:47:57.841Z,98543.89
2018-11-23T07:54:21.568Z,98545.11
2018-11-23T08:00:43.346Z,98552.39
2018-11-23T08:07:07.190Z,98556.18
2018-11-23T08:13:18.852Z,98545.66
2018-11-23T08:19:47.425Z,98534.98
2018-11-23T08:26:16.889Z,98534.42
2018-11-23T08:32:44.368Z,98535.22
2018-11-23T08:39:08.167Z,98525.47
2018-11-23T08:49:23.261Z,98516.54
2018-11-23T08:55:55.138Z,98512.84
2018-11-23T09:02:19.950Z,98517.23
2018-11-23T09:08:43.748Z,98520.45
2018-11-23T09:15:06.560Z,98519.75
2018-11-23T09:21:30.518Z,98514.99
2018-11-23T09:27:57.208Z,98515.94
2018-11-23T09:34:23.131Z,98509.38
2018-11-23T09:40:48.164Z,98506.34
2018-11-23T09:50:38.688Z,98476.73
2018-11-23T09:57:03.459Z,98474.23
2018-11-23T10:03:27.299Z,98475.51
2018-11-23T10:10:05.321Z,98462.95
2018-11-23T10:16:44.146Z,98465.51
2018-11-23T10:23:11.033Z,98451.16
2018-11-23T10:29:32.761Z,98442.09
2018-11-23T10:35:58.625Z,98439.05
2018-11-23T10:42:21.467Z,98428.33
2018-11-23T10:52:44.544Z,98422.25
2018-11-23T10:59:09.639Z,98413.27
2018-11-23T11:05:51.399Z,98408.56
2018-11-23T11:12:19.294Z,98395.49
2018-11-23T11:18:55.050Z,98397.92
2018-11-23T11:25:32.776Z,98370.24
2018-11-23T11:32:12.021Z,98353.47
2018-11-23T11:38:52.265Z,98362.82
2018-11-23T11:45:29.176Z,98350.62
2018-11-23T11:51:30.450Z,98342.61
2018-11-23T11:58:05.368Z,98337.80
2018-11-23T12:04:29.167Z,98319.12
2018-11-23T12:10:52.959Z,98325.30
2018-11-23T12:17:16.762Z,98313.57
2018-11-23T12:23:41.637Z,98302.16
2018-11-23T12:30:05.429Z,98290.62
2018-11-23T12:36:28.159Z,98289.41
2018-11-23T12:43:05.088Z,98271.66
2018-11-23T12:49:28.894Z,98267.87
2018-11-23T12:55:20.389Z,98258.36
2018-11-23T13:01:33.057Z,98257.50
2018-11-23T13:07:58.882Z,98257.66
2018-11-23T13:14:23.712Z,98244.19
2018-11-23T13:20:46.478Z,98238.47
2018-11-23T13:27:16.406Z,98236.84
2018-11-23T13:33:41.102Z,98219.41
2018-11-23T13:40:05.269Z,98212.14
2018-11-23T13:46:30.749Z,98203.53
2018-11-23T13:53:00.647Z,98208.83
2018-11-23T14:03:13.048Z,98206.25
2018-11-23T14:09:36.829Z,98211.73
2018-11-23T14:16:02.296Z,98201.08
2018-11-23T14:22:26.100Z,98195.78
2018-11-23T14:28:50.306Z,98193.48
2018-11-23T14:35:14.107Z,98195.24
2018-11-23T14:41:37.855Z,98195.11
2018-11-23T14:48:16.462Z,98197.86
2018-11-23T14:54:53.725Z,98198.20
2018-11-23T15:04:31.148Z,98194.75
2018-11-23T15:11:10.101Z,98193.05
2018-11-23T15:17:35.901Z,98185.59
2018-11-23T15:24:00.892Z,98183.32
2018-11-23T15:30:27.541Z,98168.25
2018-11-23T15:36:56.369Z,98163.49
2018-11-23T15:58:53.672Z,98171.47
2018-11-23T16:19:36.763Z,98149.56
2018-11-23T16:40:15.399Z,98135.17
2018-11-23T17:00:51.258Z,98143.16
2018-11-23T17:21:32.935Z,98110.16
2018-11-23T17:42:11.215Z,98072.40
2018-11-23T18:02:51.313Z,98035.67
2018-11-23T18:23:30.368Z,98034.30
2018-11-23T18:44:08.612Z,98024.80
2018-11-23T19:04:46.031Z,98049.84
2018-11-23T19:25:25.094Z,98008.59
2018-11-23T19:46:05.788Z,97985.05
2018-11-23T20:06:42.869Z,97973.00
2018-11-23T20:27:20.227Z,97920.82
2018-11-23T20:48:00.519Z,97908.95
2018-11-23T21:08:37.836Z,97893.82
2018-11-23T21:29:16.999Z,97875.83
2018-11-23T21:49:59.401Z,97865.28
2018-11-23T22:10:36.350Z,97837.36
2018-11-23T22:31:13.772Z,97825.99
2018-11-23T22:51:52.012Z,97793.73
2018-11-23T23:12:29.027Z,97777.24
2018-11-23T23:33:05.630Z,97775.92
2018-11-23T23:53:45.935Z,97785.61
